Time;durP1;ratioP1;P1;durP2;ratioP2;P2;SDS_P1;SDS_P2;PMS_P1;PMS_P2;Temp;Humidity;BMP_temperature;BMP_pressure;BME280_temperature;BME280_humidity;BME280_pressure;Samples;Min_cycle;Max_cycle;Signal;HPM_P1;HPM_P2
2021/05/13 00:02:07;;;;;;;8.52;1.25;;;;;;;;;;5040844;28;20025;-57
2021/05/13 00:04:32;;;;;;;3.10;1.13;;;;;;;;;;5057611;28;20610;-57
2021/05/13 00:06:58;;;;;;;7.68;2.17;;;;;;;;;;5057550;28;20357;-57
2021/05/13 00:09:23;;;;;;;5.38;0.95;;;;;;;;;;5064643;28;20051;-57
2021/05/13 00:11:51;;;;;;;3.03;1.40;;;;;;;;;;5071417;28;20040;-57
2021/05/13 00:14:17;;;;;;;6.30;0.93;;;;;;;;;;5068231;28;20067;-57
2021/05/13 00:16:42;;;;;;;3.00;1.05;;;;;;;;;;5070712;28;20032;-56
2021/05/13 00:19:09;;;;;;;2.38;1.58;;;;;;;;;;5071562;28;20041;-57
2021/05/13 00:21:35;;;;;;;4.75;1.88;;;;;;;;;;5070755;28;20036;-56
2021/05/13 00:24:01;;;;;;;14.63;2.50;;;;;;;;;;5073005;28;20123;-57
2021/05/13 00:26:37;;;;;;;4.05;1.10;;;;;;;;;;5061965;28;20112;-57
2021/05/13 00:29:03;;;;;;;4.38;1.98;;;;;;;;;;5067597;28;20037;-54
2021/05/13 00:31:29;;;;;;;2.25;1.35;;;;;;;;;;5057370;28;20036;-57
2021/05/13 00:33:54;;;;;;;1.67;0.80;;;;;;;;;;5062079;28;20507;-57
2021/05/13 00:36:19;;;;;;;6.30;1.20;;;;;;;;;;5064695;28;20062;-56
2021/05/13 00:38:45;;;;;;;1.63;0.80;;;;;;;;;;5062226;28;20068;-56
2021/05/13 00:41:10;;;;;;;4.13;1.02;;;;;;;;;;5047420;28;20059;-56
2021/05/13 00:43:35;;;;;;;1.45;0.73;;;;;;;;;;5067477;28;20762;-57
2021/05/13 00:46:00;;;;;;;7.05;1.45;;;;;;;;;;5069043;28;20028;-56
2021/05/13 00:48:32;;;;;;;3.70;1.48;;;;;;;;;;5067497;28;20555;-57
2021/05/13 00:50:58;;;;;;;6.30;2.10;;;;;;;;;;5067337;28;20040;-57
2021/05/13 00:53:24;;;;;;;3.17;1.25;;;;;;;;;;5071678;28;20526;-57
2021/05/13 00:55:50;;;;;;;5.10;0.88;;;;;;;;;;5063170;28;20033;-57
2021/05/13 00:58:15;;;;;;;5.57;1.35;;;;;;;;;;5069064;28;20404;-57
2021/05/13 01:01:02;;;;;;;3.35;0.98;;;;;;;;;;5061416;28;20762;-57
2021/05/13 01:03:26;;;;;;;3.65;1.40;;;;;;;;;;5056707;28;20115;-57
2021/05/13 01:05:52;;;;;;;3.00;1.10;;;;;;;;;;5056450;28;20101;-57
2021/05/13 01:08:17;;;;;;;5.20;1.02;;;;;;;;;;5061286;28;20796;-57
2021/05/13 01:10:43;;;;;;;2.78;1.42;;;;;;;;;;5059674;28;20041;-58
2021/05/13 01:13:12;;;;;;;4.75;1.13;;;;;;;;;;5057314;28;20087;-58
2021/05/13 01:15:43;;;;;;;3.38;1.38;;;;;;;;;;5039753;28;20482;-58
2021/05/13 01:18:15;;;;;;;2.28;1.33;;;;;;;;;;5057118;28;20048;-55
2021/05/13 01:20:41;;;;;;;3.30;2.03;;;;;;;;;;5063745;28;20037;-57
2021/05/13 01:23:10;;;;;;;3.08;1.58;;;;;;;;;;5062966;28;20031;-57
2021/05/13 01:26:02;;;;;;;1.40;0.95;;;;;;;;;;5059486;28;20045;-58
2021/05/13 01:28:28;;;;;;;2.70;1.30;;;;;;;;;;5058379;28;20105;-58
2021/05/13 01:30:55;;;;;;;2.78;1.33;;;;;;;;;;5060184;28;20036;-58
2021/05/13 01:33:21;;;;;;;8.88;1.88;;;;;;;;;;5062146;28;20032;-58
2021/05/13 01:35:47;;;;;;;3.33;1.50;;;;;;;;;;5060578;28;20059;-58
2021/05/13 01:38:13;;;;;;;6.88;1.33;;;;;;;;;;5063688;28;20043;-58
2021/05/13 01:40:39;;;;;;;3.90;1.60;;;;;;;;;;5069111;28;20131;-57
2021/05/13 01:43:05;;;;;;;3.67;1.08;;;;;;;;;;5072425;28;20051;-58
2021/05/13 01:45:31;;;;;;;5.35;1.95;;;;;;;;;;5062412;28;20025;-57
2021/05/13 01:48:01;;;;;;;13.98;1.73;;;;;;;;;;5070580;28;20108;-58
2021/05/13 01:50:28;;;;;;;5.78;2.03;;;;;;;;;;5058880;28;20036;-57
2021/05/13 01:52:53;;;;;;;5.57;1.20;;;;;;;;;;5060865;28;20148;-58
2021/05/13 01:55:18;;;;;;;6.22;2.17;;;;;;;;;;5061391;28;20155;-58
2021/05/13 01:57:43;;;;;;;4.90;1.45;;;;;;;;;;5062870;28;20040;-58
2021/05/13 02:00:09;;;;;;;2.40;0.65;;;;;;;;;;5061719;28;20044;-57
2021/05/13 02:02:35;;;;;;;6.47;1.38;;;;;;;;;;5065604;28;20047;-58
2021/05/13 02:05:01;;;;;;;1.55;1.35;;;;;;;;;;5060447;28;20143;-58
2021/05/13 02:07:26;;;;;;;8.35;1.45;;;;;;;;;;5055077;28;20434;-58
2021/05/13 02:09:51;;;;;;;1.10;0.60;;;;;;;;;;5061367;28;20107;-58
2021/05/13 02:12:17;;;;;;;3.60;1.50;;;;;;;;;;5061497;28;20592;-57
2021/05/13 02:14:42;;;;;;;2.45;1.17;;;;;;;;;;5067752;28;20036;-58
2021/05/13 02:17:07;;;;;;;3.15;1.55;;;;;;;;;;5063938;28;20041;-58
2021/05/13 02:19:32;;;;;;;6.43;1.27;;;;;;;;;;5061456;28;20033;-58
2021/05/13 02:21:58;;;;;;;1.83;1.10;;;;;;;;;;5060328;28;20056;-58
2021/05/13 02:24:23;;;;;;;3.75;1.50;;;;;;;;;;5062053;28;20123;-57
2021/05/13 02:26:48;;;;;;;2.85;1.02;;;;;;;;;;5068747;28;20035;-58
2021/05/13 02:29:14;;;;;;;4.05;1.20;;;;;;;;;;5062203;28;20040;-58
2021/05/13 02:31:39;;;;;;;4.43;2.08;;;;;;;;;;5055309;28;20486;-57
2021/05/13 02:34:04;;;;;;;6.20;1.48;;;;;;;;;;5063899;28;20053;-57
2021/05/13 02:36:30;;;;;;;1.98;1.20;;;;;;;;;;5063308;28;20505;-57
2021/05/13 02:38:55;;;;;;;2.83;0.90;;;;;;;;;;5062090;28;20116;-57
2021/05/13 02:41:20;;;;;;;1.80;1.25;;;;;;;;;;5063770;28;20130;-57
2021/05/13 02:43:45;;;;;;;3.90;1.83;;;;;;;;;;5064864;28;20111;-58
2021/05/13 02:46:11;;;;;;;1.33;0.70;;;;;;;;;;5060815;28;20031;-58
2021/05/13 02:48:36;;;;;;;3.50;1.95;;;;;;;;;;5063219;28;20440;-58
2021/05/13 02:51:01;;;;;;;11.75;2.28;;;;;;;;;;5061183;28;20482;-58
2021/05/13 02:53:27;;;;;;;4.10;1.58;;;;;;;;;;5061853;28;20394;-58
2021/05/13 02:55:52;;;;;;;3.95;1.70;;;;;;;;;;5059384;28;20394;-58
2021/05/13 02:58:17;;;;;;;4.97;1.38;;;;;;;;;;5060865;28;20080;-58
2021/05/13 03:03:14;;;;;;;;;;;;;;;;;;5062190;28;20345;-58
2021/05/13 03:05:39;;;;;;;1.65;0.68;;;;;;;;;;5068389;28;20340;-58
2021/05/13 03:08:05;;;;;;;3.10;1.27;;;;;;;;;;5060007;28;20091;-59
2021/05/13 03:10:42;;;;;;;3.28;1.15;;;;;;;;;;5044734;28;20043;-58
2021/05/13 03:13:10;;;;;;;2.17;1.67;;;;;;;;;;5056496;28;20041;-58
2021/05/13 03:15:35;;;;;;;2.33;1.38;;;;;;;;;;5061221;28;20488;-58
2021/05/13 03:18:01;;;;;;;3.72;1.25;;;;;;;;;;5061656;28;20074;-57
2021/05/13 03:20:34;;;;;;;8.95;2.38;;;;;;;;;;5055414;28;20020;-57
2021/05/13 03:22:59;;;;;;;0.93;0.65;;;;;;;;;;5056777;28;20079;-57
2021/05/13 03:25:29;;;;;;;4.38;2.42;;;;;;;;;;5045562;28;20048;-57
2021/05/13 03:28:07;;;;;;;6.68;1.92;;;;;;;;;;5059630;28;20399;-57
2021/05/13 03:30:32;;;;;;;3.95;1.15;;;;;;;;;;5062154;28;20078;-57
2021/05/13 03:32:57;;;;;;;6.10;2.25;;;;;;;;;;5061731;28;20856;-57
2021/05/13 03:35:23;;;;;;;2.47;1.15;;;;;;;;;;5042197;28;20629;-57
2021/05/13 03:37:48;;;;;;;4.65;1.90;;;;;;;;;;5059827;28;20143;-57
2021/05/13 03:40:13;;;;;;;3.33;1.20;;;;;;;;;;5062517;28;20590;-57
2021/05/13 03:42:39;;;;;;;1.77;0.90;;;;;;;;;;5056481;28;20037;-57
2021/05/13 03:45:05;;;;;;;7.32;1.55;;;;;;;;;;5059910;28;20063;-57
2021/05/13 03:47:30;;;;;;;4.95;2.55;;;;;;;;;;5062281;28;20032;-58
2021/05/13 03:49:55;;;;;;;2.50;1.65;;;;;;;;;;5055889;28;20527;-58
2021/05/13 03:52:21;;;;;;;8.13;2.75;;;;;;;;;;5059646;28;20029;-57
2021/05/13 03:54:46;;;;;;;8.45;2.42;;;;;;;;;;5056773;28;20029;-57
2021/05/13 03:57:11;;;;;;;5.32;3.53;;;;;;;;;;5059575;28;20043;-57
2021/05/13 03:59:38;;;;;;;3.30;1.95;;;;;;;;;;5063176;28;20036;-57
2021/05/13 04:02:28;;;;;;;8.07;2.00;;;;;;;;;;5056577;28;20090;-57
2021/05/13 04:04:49;;;;;;;3.50;1.88;;;;;;;;;;5064928;28;20027;-57
2021/05/13 04:07:14;;;;;;;6.05;1.98;;;;;;;;;;5044016;28;20623;-58
2021/05/13 04:09:39;;;;;;;8.80;1.42;;;;;;;;;;5058945;28;20047;-57
2021/05/13 04:12:05;;;;;;;4.78;2.70;;;;;;;;;;5054710;28;20463;-57
2021/05/13 04:14:30;;;;;;;10.18;1.83;;;;;;;;;;5059788;28;20069;-58
2021/05/13 04:16:58;;;;;;;2.95;1.65;;;;;;;;;;5065872;28;20048;-57
2021/05/13 04:19:23;;;;;;;8.52;2.65;;;;;;;;;;5064131;28;20115;-58
2021/05/13 04:21:48;;;;;;;7.22;1.58;;;;;;;;;;5068098;28;20127;-58
2021/05/13 04:24:14;;;;;;;9.93;3.03;;;;;;;;;;5065159;28;20045;-59
2021/05/13 04:26:41;;;;;;;6.15;1.77;;;;;;;;;;5069466;28;20036;-58
2021/05/13 04:29:07;;;;;;;5.78;2.35;;;;;;;;;;5057562;28;20147;-58
2021/05/13 04:31:33;;;;;;;7.00;1.50;;;;;;;;;;5059220;28;20106;-58
2021/05/13 04:33:58;;;;;;;8.45;2.58;;;;;;;;;;5062002;28;20517;-58
2021/05/13 04:36:23;;;;;;;12.10;2.25;;;;;;;;;;5057837;28;20063;-58
2021/05/13 04:38:48;;;;;;;4.43;1.92;;;;;;;;;;5057433;28;20036;-58
2021/05/13 04:41:14;;;;;;;7.13;2.42;;;;;;;;;;5060195;28;20175;-58
2021/05/13 04:43:39;;;;;;;6.43;1.40;;;;;;;;;;5062663;28;20409;-58
2021/05/13 04:46:06;;;;;;;9.68;1.98;;;;;;;;;;5071315;28;20041;-58
2021/05/13 04:48:52;;;;;;;8.27;3.30;;;;;;;;;;5065775;28;20052;-59
2021/05/13 04:51:21;;;;;;;5.47;2.28;;;;;;;;;;5067817;28;20579;-59
2021/05/13 04:53:46;;;;;;;6.22;2.72;;;;;;;;;;5061220;28;20564;-58
2021/05/13 04:56:12;;;;;;;3.72;1.42;;;;;;;;;;5072390;28;20043;-58
2021/05/13 04:58:37;;;;;;;7.25;1.85;;;;;;;;;;5068630;28;20037;-58
2021/05/13 05:01:02;;;;;;;8.75;2.70;;;;;;;;;;5061394;28;20029;-57
2021/05/13 05:03:28;;;;;;;5.70;2.55;;;;;;;;;;5060825;28;20676;-58
2021/05/13 05:05:54;;;;;;;18.30;3.45;;;;;;;;;;5064582;28;20545;-57
2021/05/13 05:08:19;;;;;;;10.23;3.08;;;;;;;;;;5063540;28;20044;-58
2021/05/13 05:10:45;;;;;;;8.23;3.47;;;;;;;;;;5065477;28;20029;-58
2021/05/13 05:13:11;;;;;;;15.30;3.63;;;;;;;;;;5048448;28;20040;-58
2021/05/13 05:15:36;;;;;;;4.97;2.20;;;;;;;;;;5067150;28;20055;-58
2021/05/13 05:18:01;;;;;;;6.45;3.20;;;;;;;;;;5044718;28;20115;-58
2021/05/13 05:20:27;;;;;;;8.32;3.67;;;;;;;;;;5062430;28;20485;-58
2021/05/13 05:22:52;;;;;;;2.92;1.85;;;;;;;;;;5056852;28;20039;-58
2021/05/13 05:25:17;;;;;;;10.05;3.45;;;;;;;;;;5038818;28;20056;-58
2021/05/13 05:27:43;;;;;;;10.20;3.00;;;;;;;;;;5061883;28;20489;-58
2021/05/13 05:30:08;;;;;;;6.82;1.73;;;;;;;;;;5061893;28;20071;-46
2021/05/13 05:32:34;;;;;;;8.80;2.38;;;;;;;;;;5061461;28;20714;-48
2021/05/13 05:35:04;;;;;;;10.15;3.35;;;;;;;;;;5061933;28;20033;-47
2021/05/13 05:37:29;;;;;;;18.08;2.78;;;;;;;;;;5061051;28;20040;-48
2021/05/13 05:39:55;;;;;;;8.43;2.55;;;;;;;;;;5060440;28;20044;-49
2021/05/13 05:42:20;;;;;;;10.45;4.82;;;;;;;;;;5065337;28;20077;-49
2021/05/13 05:44:45;;;;;;;5.28;3.17;;;;;;;;;;5068622;28;20024;-46
2021/05/13 05:47:12;;;;;;;11.60;3.45;;;;;;;;;;5056014;28;20133;-49
2021/05/13 05:49:38;;;;;;;11.63;2.85;;;;;;;;;;5058508;28;20049;-45
2021/05/13 05:52:03;;;;;;;9.75;2.47;;;;;;;;;;5062572;28;20477;-48
2021/05/13 05:54:28;;;;;;;19.55;3.40;;;;;;;;;;5062335;28;20074;-46
2021/05/13 05:56:54;;;;;;;8.45;1.75;;;;;;;;;;5061047;28;20037;-46
2021/05/13 05:59:19;;;;;;;7.20;2.47;;;;;;;;;;5063661;28;20037;-44
2021/05/13 06:01:44;;;;;;;17.33;3.75;;;;;;;;;;5062268;28;20457;-46
2021/05/13 06:04:10;;;;;;;14.43;3.13;;;;;;;;;;5064690;28;20036;-44
2021/05/13 06:06:37;;;;;;;20.70;4.13;;;;;;;;;;5062307;28;20048;-44
2021/05/13 06:09:02;;;;;;;27.73;9.52;;;;;;;;;;5061052;28;20060;-45
2021/05/13 06:11:28;;;;;;;14.77;5.03;;;;;;;;;;5061890;28;20083;-44
2021/05/13 06:13:53;;;;;;;19.25;4.63;;;;;;;;;;5059571;28;20033;-43
2021/05/13 06:16:18;;;;;;;9.70;3.22;;;;;;;;;;5065444;28;20070;-44
2021/05/13 06:18:54;;;;;;;11.90;2.65;;;;;;;;;;5061828;28;20704;-44
2021/05/13 06:21:20;;;;;;;17.75;4.07;;;;;;;;;;5061688;28;20041;-44
2021/05/13 06:23:46;;;;;;;13.15;3.90;;;;;;;;;;5061088;28;20035;-44
2021/05/13 06:26:22;;;;;;;4.50;1.83;;;;;;;;;;5060531;28;20036;-45
2021/05/13 06:28:47;;;;;;;10.77;2.88;;;;;;;;;;5058331;28;20417;-43
2021/05/13 06:31:13;;;;;;;9.23;1.80;;;;;;;;;;5062928;28;20552;-43
2021/05/13 06:33:38;;;;;;;4.65;2.00;;;;;;;;;;5062171;28;20505;-46
2021/05/13 06:36:03;;;;;;;16.13;4.22;;;;;;;;;;5060407;28;20046;-48
2021/05/13 06:38:30;;;;;;;2.40;1.67;;;;;;;;;;5060731;28;20043;-43
2021/05/13 06:40:55;;;;;;;6.47;2.20;;;;;;;;;;5063888;28;20140;-44
2021/05/13 06:43:20;;;;;;;5.80;2.65;;;;;;;;;;5062652;28;20139;-46
2021/05/13 06:45:46;;;;;;;13.05;5.43;;;;;;;;;;5047266;28;20056;-42
2021/05/13 06:48:11;;;;;;;11.13;3.70;;;;;;;;;;5064524;28;20502;-39
2021/05/13 06:50:37;;;;;;;10.18;3.22;;;;;;;;;;5063653;28;20041;-40
2021/05/13 06:53:02;;;;;;;8.80;3.55;;;;;;;;;;5056313;28;20071;-40
2021/05/13 06:55:30;;;;;;;6.00;2.88;;;;;;;;;;5061051;28;20123;-39
2021/05/13 06:57:55;;;;;;;13.02;2.67;;;;;;;;;;5061136;28;20060;-42
2021/05/13 07:00:21;;;;;;;8.30;3.85;;;;;;;;;;5065384;28;20076;-48
2021/05/13 07:02:47;;;;;;;6.97;2.70;;;;;;;;;;5061110;28;20036;-44
2021/05/13 07:05:13;;;;;;;7.18;0.95;;;;;;;;;;5061293;28;20045;-41
2021/05/13 07:07:40;;;;;;;5.65;3.03;;;;;;;;;;5057395;28;20086;-42
2021/05/13 07:10:05;;;;;;;4.07;2.03;;;;;;;;;;5058464;28;20087;-43
2021/05/13 07:12:31;;;;;;;10.05;3.83;;;;;;;;;;5060242;28;20424;-42
2021/05/13 07:14:56;;;;;;;19.55;3.80;;;;;;;;;;5058556;28;20081;-42
2021/05/13 07:17:22;;;;;;;4.38;1.45;;;;;;;;;;5056461;28;20041;-42
2021/05/13 07:19:47;;;;;;;1.40;1.20;;;;;;;;;;5055922;28;20048;-44
2021/05/13 07:22:12;;;;;;;10.05;1.73;;;;;;;;;;5058210;28;20037;-43
2021/05/13 07:24:38;;;;;;;4.15;1.65;;;;;;;;;;5057067;28;20598;-45
2021/05/13 07:27:09;;;;;;;5.97;0.70;;;;;;;;;;5052851;28;20033;-45
2021/05/13 07:29:34;;;;;;;;;;;;;;;;;;5057395;28;20135;-44
2021/05/13 07:31:59;;;;;;;1.00;0.27;;;;;;;;;;5059439;28;20015;-43
2021/05/13 07:34:25;;;;;;;3.70;0.80;;;;;;;;;;5056451;28;20490;-44
2021/05/13 07:36:50;;;;;;;2.13;0.52;;;;;;;;;;5059333;28;20142;-45
2021/05/13 07:39:16;;;;;;;3.10;1.60;;;;;;;;;;5064218;28;20074;-42
2021/05/13 07:41:41;;;;;;;4.97;1.65;;;;;;;;;;5040664;28;20049;-45
2021/05/13 07:44:06;;;;;;;1.73;0.90;;;;;;;;;;5061450;28;20078;-44
2021/05/13 07:46:38;;;;;;;4.03;1.00;;;;;;;;;;5057410;28;20167;-43
2021/05/13 07:49:04;;;;;;;22.70;1.65;;;;;;;;;;5056571;28;20619;-45
2021/05/13 07:51:29;;;;;;;4.03;1.30;;;;;;;;;;5054662;28;20080;-46
2021/05/13 07:53:55;;;;;;;2.08;0.63;;;;;;;;;;5057424;28;20039;-43
2021/05/13 07:56:20;;;;;;;1.63;0.50;;;;;;;;;;5057931;28;20040;-47
2021/05/13 07:58:46;;;;;;;21.05;7.30;;;;;;;;;;5060773;28;20035;-45
2021/05/13 08:01:11;;;;;;;5.50;2.05;;;;;;;;;;5061494;28;20144;-50
2021/05/13 08:03:36;;;;;;;6.95;2.75;;;;;;;;;;5067458;28;20103;-46
2021/05/13 08:06:02;;;;;;;3.95;0.75;;;;;;;;;;5063690;28;20032;-47
2021/05/13 08:08:27;;;;;;;25.80;4.53;;;;;;;;;;5067226;28;20040;-45
2021/05/13 08:10:53;;;;;;;9.18;1.05;;;;;;;;;;5066542;28;20040;-46
2021/05/13 08:13:18;;;;;;;6.82;1.13;;;;;;;;;;5057940;28;20145;-47
2021/05/13 08:15:43;;;;;;;2.75;1.42;;;;;;;;;;5057953;28;20028;-47
2021/05/13 08:18:09;;;;;;;2.40;1.00;;;;;;;;;;5059795;28;20051;-48
2021/05/13 08:20:34;;;;;;;3.05;1.00;;;;;;;;;;5062765;28;20076;-41
2021/05/13 08:22:59;;;;;;;1.92;0.60;;;;;;;;;;5059589;28;20050;-42
2021/05/13 08:25:25;;;;;;;2.10;1.02;;;;;;;;;;5061458;28;20057;-43
2021/05/13 08:27:50;;;;;;;34.17;4.07;;;;;;;;;;5061826;28;20120;-45
2021/05/13 08:30:16;;;;;;;4.28;0.82;;;;;;;;;;5058243;28;20473;-43
2021/05/13 08:32:41;;;;;;;11.07;1.15;;;;;;;;;;5064759;28;20726;-44
2021/05/13 08:35:07;;;;;;;3.35;1.23;;;;;;;;;;5063848;28;20082;-42
2021/05/13 08:37:33;;;;;;;11.70;1.65;;;;;;;;;;5064641;28;20037;-44
2021/05/13 08:39:58;;;;;;;5.95;2.22;;;;;;;;;;5065358;28;20040;-42
2021/05/13 08:42:23;;;;;;;4.00;1.55;;;;;;;;;;5066262;28;20556;-46
2021/05/13 08:44:49;;;;;;;17.15;1.77;;;;;;;;;;5065467;28;20044;-42
2021/05/13 08:47:14;;;;;;;4.63;0.82;;;;;;;;;;5059381;28;20620;-42
2021/05/13 08:49:40;;;;;;;5.38;0.90;;;;;;;;;;5065688;28;20041;-41
2021/05/13 08:52:09;;;;;;;4.43;0.93;;;;;;;;;;5061943;28;20051;-44
2021/05/13 08:54:35;;;;;;;3.08;2.05;;;;;;;;;;5053628;28;20040;-40
2021/05/13 08:57:00;;;;;;;2.58;0.45;;;;;;;;;;5063445;28;20037;-45
2021/05/13 08:59:27;;;;;;;0.43;0.25;;;;;;;;;;5069862;28;20415;-46
2021/05/13 09:01:55;;;;;;;0.93;0.55;;;;;;;;;;5056814;28;20109;-45
2021/05/13 09:04:20;;;;;;;3.92;0.63;;;;;;;;;;5063848;28;20033;-43
2021/05/13 09:06:46;;;;;;;7.93;0.45;;;;;;;;;;5064212;28;20078;-45
2021/05/13 09:09:11;;;;;;;1.30;0.35;;;;;;;;;;5061049;28;20028;-43
2021/05/13 09:11:53;;;;;;;1.52;0.70;;;;;;;;;;5062988;28;20044;-42
2021/05/13 09:14:20;;;;;;;1.50;1.33;;;;;;;;;;5064482;28;20094;-39
2021/05/13 09:16:48;;;;;;;6.75;0.80;;;;;;;;;;5065876;28;20033;-39
2021/05/13 09:19:30;;;;;;;1.08;0.63;;;;;;;;;;5066763;28;20544;-44
2021/05/13 09:22:01;;;;;;;2.83;1.00;;;;;;;;;;5063872;28;20040;-43
2021/05/13 09:24:45;;;;;;;6.97;0.40;;;;;;;;;;5062612;28;20541;-45
2021/05/13 09:27:17;;;;;;;2.70;0.85;;;;;;;;;;5059716;28;20798;-44
2021/05/13 09:29:43;;;;;;;1.02;0.40;;;;;;;;;;5060640;28;20035;-41
2021/05/13 09:32:18;;;;;;;2.55;0.30;;;;;;;;;;5066575;28;20072;-43
2021/05/13 09:34:44;;;;;;;1.67;0.40;;;;;;;;;;5060387;28;20119;-43
2021/05/13 09:37:10;;;;;;;9.73;1.92;;;;;;;;;;5052943;28;20131;-48
2021/05/13 09:39:35;;;;;;;0.52;0.30;;;;;;;;;;5053796;28;20068;-43
2021/05/13 09:42:00;;;;;;;5.20;1.45;;;;;;;;;;5060420;28;20051;-44
2021/05/13 09:44:33;;;;;;;1.60;0.80;;;;;;;;;;5059988;28;20032;-47
2021/05/13 09:47:11;;;;;;;1.75;0.88;;;;;;;;;;5052525;28;20114;-47
2021/05/13 09:49:40;;;;;;;3.55;0.20;;;;;;;;;;5057089;28;20036;-46
2021/05/13 09:52:05;;;;;;;18.05;2.97;;;;;;;;;;5057448;28;20047;-44
2021/05/13 09:54:30;;;;;;;3.50;1.33;;;;;;;;;;5044773;28;20042;-47
2021/05/13 09:56:58;;;;;;;2.85;0.88;;;;;;;;;;5057321;28;20048;-45
2021/05/13 09:59:37;;;;;;;2.67;1.35;;;;;;;;;;5059973;28;20372;-47
2021/05/13 10:02:04;;;;;;;7.80;0.45;;;;;;;;;;5056162;28;20036;-45
2021/05/13 10:04:29;;;;;;;1.27;0.63;;;;;;;;;;5057594;28;20037;-44
2021/05/13 10:06:55;;;;;;;2.67;1.45;;;;;;;;;;5059776;28;20037;-43
2021/05/13 10:09:21;;;;;;;0.20;0.20;;;;;;;;;;5057953;28;20578;-48
2021/05/13 10:11:49;;;;;;;5.78;1.60;;;;;;;;;;5058843;28;20808;-48
2021/05/13 10:14:15;;;;;;;3.15;2.28;;;;;;;;;;5057278;28;20190;-43
2021/05/13 10:16:41;;;;;;;12.02;2.33;;;;;;;;;;5060638;28;20537;-39
2021/05/13 10:19:12;;;;;;;2.42;0.98;;;;;;;;;;5058592;28;20032;-43
2021/05/13 10:21:40;;;;;;;1.25;0.50;;;;;;;;;;5063471;28;20037;-40
2021/05/13 10:24:06;;;;;;;1.35;0.70;;;;;;;;;;5056621;28;20052;-42
2021/05/13 10:26:37;;;;;;;0.25;0.20;;;;;;;;;;5058964;28;20105;-39
2021/05/13 10:29:27;;;;;;;8.15;2.67;;;;;;;;;;5053313;28;20147;-39
2021/05/13 10:32:03;;;;;;;2.65;1.27;;;;;;;;;;5057942;28;20878;-39
2021/05/13 10:34:54;;;;;;;10.75;1.10;;;;;;;;;;5052586;28;20036;-42
2021/05/13 10:37:31;;;;;;;2.40;0.68;;;;;;;;;;5053494;28;20041;-38
2021/05/13 10:40:13;;;;;;;0.43;0.25;;;;;;;;;;5061849;28;20047;-38
2021/05/13 10:42:39;;;;;;;1.80;0.73;;;;;;;;;;5059092;28;20740;-39
2021/05/13 10:45:23;;;;;;;5.85;1.38;;;;;;;;;;5064484;28;20032;-38
2021/05/13 10:48:07;;;;;;;0.60;0.25;;;;;;;;;;5035463;28;20036;-38
2021/05/13 10:50:42;;;;;;;1.20;0.32;;;;;;;;;;5058903;28;20036;-46
2021/05/13 10:53:26;;;;;;;2.67;0.15;;;;;;;;;;5063660;28;20740;-51
2021/05/13 10:56:10;;;;;;;1.30;0.68;;;;;;;;;;5030051;28;20041;-50
2021/05/13 10:58:58;;;;;;;0.55;0.20;;;;;;;;;;5061979;28;20408;-43
2021/05/13 11:01:35;;;;;;;1.77;0.55;;;;;;;;;;5055681;28;20115;-46
2021/05/13 11:04:19;;;;;;;2.80;1.00;;;;;;;;;;5060932;28;20040;-45
2021/05/13 11:06:45;;;;;;;2.10;0.73;;;;;;;;;;5044661;28;20032;-44
2021/05/13 11:09:10;;;;;;;1.35;0.45;;;;;;;;;;5062797;28;20091;-44
2021/05/13 11:11:54;;;;;;;2.20;0.60;;;;;;;;;;5058443;28;21470;-43
2021/05/13 11:14:24;;;;;;;1.77;0.63;;;;;;;;;;5055989;28;20752;-44
2021/05/13 11:16:56;;;;;;;2.05;0.75;;;;;;;;;;5026352;28;20157;-46
2021/05/13 11:19:23;;;;;;;6.03;0.68;;;;;;;;;;5056241;28;20730;-45
2021/05/13 11:21:55;;;;;;;1.77;0.90;;;;;;;;;;5047855;28;20057;-45
2021/05/13 11:24:20;;;;;;;2.58;1.27;;;;;;;;;;5057051;28;20044;-43
2021/05/13 11:26:46;;;;;;;0.60;0.40;;;;;;;;;;5059383;28;20037;-42
2021/05/13 11:29:11;;;;;;;5.07;0.95;;;;;;;;;;5058480;28;20032;-43
2021/05/13 11:31:36;;;;;;;1.30;0.40;;;;;;;;;;5066048;28;20043;-42
2021/05/13 11:34:04;;;;;;;2.08;0.98;;;;;;;;;;5054382;28;20033;-53
2021/05/13 11:36:40;;;;;;;5.97;1.08;;;;;;;;;;5053373;28;20090;-46
2021/05/13 11:39:12;;;;;;;2.75;0.95;;;;;;;;;;5062273;28;20488;-42
2021/05/13 11:41:38;;;;;;;3.60;0.75;;;;;;;;;;5057040;28;20493;-43
2021/05/13 11:44:03;;;;;;;2.13;0.75;;;;;;;;;;5021874;28;20032;-46
2021/05/13 11:46:29;;;;;;;2.60;1.17;;;;;;;;;;5048425;28;20052;-42
2021/05/13 11:48:55;;;;;;;0.85;0.52;;;;;;;;;;5056700;28;20041;-42
2021/05/13 11:51:22;;;;;;;3.45;1.17;;;;;;;;;;5054657;28;20496;-44
2021/05/13 11:53:48;;;;;;;0.77;0.65;;;;;;;;;;5060291;28;20060;-43
2021/05/13 11:56:14;;;;;;;0.82;0.20;;;;;;;;;;5056445;28;20037;-43
2021/05/13 11:58:42;;;;;;;1.40;0.52;;;;;;;;;;5063526;28;20032;-45
2021/05/13 12:01:20;;;;;;;0.25;0.10;;;;;;;;;;5061838;28;20766;-41
2021/05/13 12:03:46;;;;;;;0.20;0.10;;;;;;;;;;5060884;28;20349;-44
2021/05/13 12:06:11;;;;;;;1.83;0.65;;;;;;;;;;5063800;28;20458;-42
2021/05/13 12:08:38;;;;;;;0.20;0.10;;;;;;;;;;5070112;28;20442;-42
2021/05/13 12:11:24;;;;;;;0.10;0.10;;;;;;;;;;5062846;28;20028;-46
2021/05/13 12:13:50;;;;;;;3.05;1.02;;;;;;;;;;5062528;28;20041;-44
2021/05/13 12:16:16;;;;;;;1.08;0.30;;;;;;;;;;5055920;28;20085;-44
2021/05/13 12:18:42;;;;;;;0.10;0.10;;;;;;;;;;5064387;28;20033;-43
2021/05/13 12:21:08;;;;;;;0.20;0.20;;;;;;;;;;5064834;28;20032;-43
2021/05/13 12:23:34;;;;;;;2.75;0.45;;;;;;;;;;5063989;28;20035;-42
2021/05/13 12:25:59;;;;;;;0.80;0.60;;;;;;;;;;5063585;28;20044;-43
2021/05/13 12:28:25;;;;;;;1.38;0.40;;;;;;;;;;5052904;28;20078;-43
2021/05/13 12:30:54;;;;;;;1.27;0.50;;;;;;;;;;5063341;28;20433;-42
2021/05/13 12:33:23;;;;;;;1.15;0.32;;;;;;;;;;5065490;28;20116;-43
2021/05/13 12:35:49;;;;;;;13.07;1.00;;;;;;;;;;5063289;28;20037;-42
2021/05/13 12:38:24;;;;;;;1.75;0.65;;;;;;;;;;5065349;28;20041;-46
2021/05/13 12:41:10;;;;;;;6.13;2.58;;;;;;;;;;5058816;28;20505;-42
2021/05/13 12:43:36;;;;;;;1.63;0.68;;;;;;;;;;5067600;28;20102;-43
2021/05/13 12:46:14;;;;;;;4.18;1.33;;;;;;;;;;5061079;28;20025;-41
2021/05/13 12:48:39;;;;;;;1.00;0.50;;;;;;;;;;5065813;28;20610;-42
2021/05/13 12:51:09;;;;;;;0.85;0.43;;;;;;;;;;5063624;28;20041;-42
2021/05/13 12:53:35;;;;;;;4.30;0.65;;;;;;;;;;5065362;28;20051;-42
2021/05/13 12:56:00;;;;;;;1.55;0.40;;;;;;;;;;5061680;28;20037;-43
2021/05/13 12:58:27;;;;;;;2.53;0.82;;;;;;;;;;5066659;28;20037;-43
2021/05/13 13:00:55;;;;;;;4.00;0.98;;;;;;;;;;5069383;28;20043;-42
2021/05/13 13:03:31;;;;;;;5.47;0.60;;;;;;;;;;5064016;28;20544;-44
2021/05/13 13:06:13;;;;;;;1.38;0.57;;;;;;;;;;5062917;28;20078;-42
2021/05/13 13:08:40;;;;;;;1.55;0.60;;;;;;;;;;5058899;28;20036;-41
2021/05/13 13:11:05;;;;;;;6.22;1.08;;;;;;;;;;5066431;28;20059;-44
2021/05/13 13:13:43;;;;;;;4.50;0.88;;;;;;;;;;5062974;28;20401;-44
2021/05/13 13:16:17;;;;;;;0.75;0.52;;;;;;;;;;5062114;28;20033;-41
2021/05/13 13:18:42;;;;;;;6.35;0.88;;;;;;;;;;5062143;28;20047;-42
2021/05/13 13:21:15;;;;;;;6.03;1.73;;;;;;;;;;5058414;28;20036;-46
2021/05/13 13:23:41;;;;;;;9.02;0.90;;;;;;;;;;5072020;28;20093;-41
2021/05/13 13:26:08;;;;;;;2.92;1.23;;;;;;;;;;5063654;28;20045;-46
2021/05/13 13:28:40;;;;;;;8.18;1.60;;;;;;;;;;5063668;28;20055;-43
2021/05/13 13:31:09;;;;;;;2.13;1.05;;;;;;;;;;5064197;28;20032;-42
2021/05/13 13:33:38;;;;;;;2.72;1.27;;;;;;;;;;5072317;28;20119;-47
2021/05/13 13:36:03;;;;;;;32.38;1.88;;;;;;;;;;5068220;28;20040;-46
2021/05/13 13:38:32;;;;;;;5.22;0.80;;;;;;;;;;5069434;28;20327;-45
2021/05/13 13:40:59;;;;;;;6.97;0.90;;;;;;;;;;5045465;28;20028;-49
2021/05/13 13:43:34;;;;;;;0.38;0.20;;;;;;;;;;5062491;28;20040;-46
2021/05/13 13:45:59;;;;;;;1.95;0.68;;;;;;;;;;5063127;28;20058;-44
2021/05/13 13:48:25;;;;;;;6.07;0.38;;;;;;;;;;5055807;28;20086;-44
2021/05/13 13:50:55;;;;;;;0.68;0.30;;;;;;;;;;5060677;28;20051;-44
2021/05/13 13:53:24;;;;;;;0.98;0.25;;;;;;;;;;5059960;28;20028;-43
2021/05/13 13:55:50;;;;;;;5.13;0.43;;;;;;;;;;5065358;28;20740;-43
2021/05/13 13:58:16;;;;;;;1.42;0.30;;;;;;;;;;5044301;28;20517;-42
2021/05/13 14:00:41;;;;;;;3.08;1.20;;;;;;;;;;5057025;28;20048;-42
2021/05/13 14:03:07;;;;;;;3.00;1.45;;;;;;;;;;5064561;28;20493;-49
2021/05/13 14:05:33;;;;;;;2.05;0.45;;;;;;;;;;5065734;28;20041;-43
2021/05/13 14:07:58;;;;;;;7.55;1.08;;;;;;;;;;5057083;28;20652;-43
2021/05/13 14:10:29;;;;;;;21.58;3.95;;;;;;;;;;5055342;28;20480;-48
2021/05/13 14:12:57;;;;;;;8.98;2.03;;;;;;;;;;5066635;28;20037;-46
2021/05/13 14:15:23;;;;;;;1.98;0.52;;;;;;;;;;5057818;28;20083;-46
2021/05/13 14:17:49;;;;;;;2.03;0.63;;;;;;;;;;5059392;28;20494;-48
2021/05/13 14:20:18;;;;;;;2.35;0.45;;;;;;;;;;5067911;28;20034;-42
2021/05/13 14:22:47;;;;;;;1.33;0.40;;;;;;;;;;5058947;28;20036;-42
2021/05/13 14:25:13;;;;;;;11.98;0.75;;;;;;;;;;5066735;28;20044;-38
2021/05/13 14:27:39;;;;;;;1.85;0.30;;;;;;;;;;5060835;28;20529;-40
2021/05/13 14:30:05;;;;;;;1.45;0.85;;;;;;;;;;5067500;28;20044;-47
2021/05/13 14:32:30;;;;;;;0.60;0.32;;;;;;;;;;5061557;28;20056;-43
2021/05/13 14:34:55;;;;;;;0.95;0.32;;;;;;;;;;5059281;28;20720;-42
2021/05/13 14:37:21;;;;;;;1.05;0.30;;;;;;;;;;5062229;28;20035;-43
2021/05/13 14:39:46;;;;;;;1.50;0.77;;;;;;;;;;5051287;28;20040;-43
2021/05/13 14:42:14;;;;;;;1.33;0.65;;;;;;;;;;5066622;28;20051;-43
2021/05/13 14:44:40;;;;;;;3.22;1.48;;;;;;;;;;5070082;28;20553;-42
2021/05/13 14:47:05;;;;;;;1.08;0.50;;;;;;;;;;5069503;28;20496;-45